sensor_id;sensor_type;location;lat;lon;timestamp;temperature;humidity
3100;DHT22;1560;52.746;13.474;2023-05-20T00:00:53;10.80;99.90
3100;DHT22;1560;52.746;13.474;2023-05-20T00:03:24;10.80;99.90
3100;DHT22;1560;52.746;13.474;2023-05-20T00:05:54;10.80;99.90
3100;DHT22;1560;52.746;13.474;2023-05-20T00:08:23;10.80;99.90
3100;DHT22;1560;52.746;13.474;2023-05-20T00:10:52;10.70;99.90
3100;DHT22;1560;52.746;13.474;2023-05-20T00:16:02;10.60;99.90
3100;DHT22;1560;52.746;13.474;2023-05-20T00:18:33;10.50;99.90
3100;DHT22;1560;52.746;13.474;2023-05-20T00:23:40;10.60;99.90
3100;DHT22;1560;52.746;13.474;2023-05-20T00:26:12;10.60;99.90
3100;DHT22;1560;52.746;13.474;2023-05-20T00:28:43;10.50;99.90
3100;DHT22;1560;52.746;13.474;2023-05-20T00:31:14;10.50;99.90
3100;DHT22;1560;52.746;13.474;2023-05-20T00:33:43;10.40;99.90
3100;DHT22;1560;52.746;13.474;2023-05-20T00:36:12;10.30;99.90
3100;DHT22;1560;52.746;13.474;2023-05-20T00:38:41;10.20;99.90
3100;DHT22;1560;52.746;13.474;2023-05-20T00:41:10;10.10;99.90
3100;DHT22;1560;52.746;13.474;2023-05-20T00:46:19;10.10;99.90
3100;DHT22;1560;52.746;13.474;2023-05-20T00:51:27;10.10;99.90
3100;DHT22;1560;52.746;13.474;2023-05-20T00:53:59;10.20;99.90
3100;DHT22;1560;52.746;13.474;2023-05-20T00:56:31;10.10;99.90
3100;DHT22;1560;52.746;13.474;2023-05-20T00:59:00;10.10;99.90
3100;DHT22;1560;52.746;13.474;2023-05-20T01:04:10;10.00;99.90
3100;DHT22;1560;52.746;13.474;2023-05-20T01:09:21;10.10;99.90
3100;DHT22;1560;52.746;13.474;2023-05-20T01:11:53;10.10;99.90
3100;DHT22;1560;52.746;13.474;2023-05-20T01:14:24;10.00;99.90
3100;DHT22;1560;52.746;13.474;2023-05-20T01:16:56;10.10;99.90
3100;DHT22;1560;52.746;13.474;2023-05-20T01:19:41;10.00;99.90
3100;DHT22;1560;52.746;13.474;2023-05-20T01:22:03;10.00;99.90
3100;DHT22;1560;52.746;13.474;2023-05-20T01:24:37;10.00;99.90
3100;DHT22;1560;52.746;13.474;2023-05-20T01:27:06;10.00;99.90
3100;DHT22;1560;52.746;13.474;2023-05-20T01:29:37;10.00;99.90
3100;DHT22;1560;52.746;13.474;2023-05-20T01:32:10;9.90;99.90
3100;DHT22;1560;52.746;13.474;2023-05-20T01:34:41;9.90;99.90
3100;DHT22;1560;52.746;13.474;2023-05-20T01:37:14;9.90;99.90
3100;DHT22;1560;52.746;13.474;2023-05-20T01:39:44;9.90;99.90
3100;DHT22;1560;52.746;13.474;2023-05-20T01:42:15;9.90;99.90
3100;DHT22;1560;52.746;13.474;2023-05-20T01:47:25;9.80;99.90
3100;DHT22;1560;52.746;13.474;2023-05-20T01:49:54;9.80;99.90
3100;DHT22;1560;52.746;13.474;2023-05-20T01:52:23;9.80;99.90
3100;DHT22;1560;52.746;13.474;2023-05-20T01:57:36;9.70;99.90
3100;DHT22;1560;52.746;13.474;2023-05-20T02:00:08;9.70;99.90
3100;DHT22;1560;52.746;13.474;2023-05-20T02:02:37;9.70;99.90
3100;DHT22;1560;52.746;13.474;2023-05-20T02:07:46;9.70;99.90
3100;DHT22;1560;52.746;13.474;2023-05-20T02:10:19;9.70;99.90
3100;DHT22;1560;52.746;13.474;2023-05-20T02:15:27;9.70;99.90
3100;DHT22;1560;52.746;13.474;2023-05-20T02:20:42;9.70;99.90
3100;DHT22;1560;52.746;13.474;2023-05-20T02:23:11;9.70;99.90
3100;DHT22;1560;52.746;13.474;2023-05-20T02:25:44;9.70;99.90
3100;DHT22;1560;52.746;13.474;2023-05-20T02:28:13;9.70;99.90
3100;DHT22;1560;52.746;13.474;2023-05-20T02:30:43;9.70;99.90
3100;DHT22;1560;52.746;13.474;2023-05-20T02:33:13;9.70;99.90
3100;DHT22;1560;52.746;13.474;2023-05-20T02:38:25;9.60;99.90
3100;DHT22;1560;52.746;13.474;2023-05-20T02:40:55;9.40;99.90
3100;DHT22;1560;52.746;13.474;2023-05-20T02:43:25;9.30;99.90
3100;DHT22;1560;52.746;13.474;2023-05-20T02:48:34;9.30;99.90
3100;DHT22;1560;52.746;13.474;2023-05-20T02:51:04;9.20;99.90
3100;DHT22;1560;52.746;13.474;2023-05-20T02:56:11;9.00;99.90
3100;DHT22;1560;52.746;13.474;2023-05-20T02:58:40;9.10;99.90
3100;DHT22;1560;52.746;13.474;2023-05-20T03:03:52;9.00;99.90
3100;DHT22;1560;52.746;13.474;2023-05-20T03:06:21;8.90;99.90
3100;DHT22;1560;52.746;13.474;2023-05-20T03:08:50;8.90;99.90
3100;DHT22;1560;52.746;13.474;2023-05-20T03:11:20;8.90;99.90
3100;DHT22;1560;52.746;13.474;2023-05-20T03:13:49;8.90;99.90
3100;DHT22;1560;52.746;13.474;2023-05-20T03:16:18;9.00;99.90
3100;DHT22;1560;52.746;13.474;2023-05-20T03:18:47;9.00;99.90
3100;DHT22;1560;52.746;13.474;2023-05-20T03:21:24;9.10;99.90
3100;DHT22;1560;52.746;13.474;2023-05-20T03:23:56;9.00;99.90
3100;DHT22;1560;52.746;13.474;2023-05-20T03:26:25;9.00;99.90
3100;DHT22;1560;52.746;13.474;2023-05-20T03:31:34;8.90;99.90
3100;DHT22;1560;52.746;13.474;2023-05-20T03:34:03;8.90;99.90
3100;DHT22;1560;52.746;13.474;2023-05-20T03:39:11;8.80;99.90
3100;DHT22;1560;52.746;13.474;2023-05-20T03:41:40;8.80;99.90
3100;DHT22;1560;52.746;13.474;2023-05-20T03:44:12;8.70;99.90
3100;DHT22;1560;52.746;13.474;2023-05-20T03:46:41;8.80;99.90
3100;DHT22;1560;52.746;13.474;2023-05-20T03:49:10;8.70;99.90
3100;DHT22;1560;52.746;13.474;2023-05-20T03:51:40;8.70;99.90
3100;DHT22;1560;52.746;13.474;2023-05-20T03:56:52;8.70;99.90
3100;DHT22;1560;52.746;13.474;2023-05-20T03:59:21;8.70;99.90
3100;DHT22;1560;52.746;13.474;2023-05-20T04:01:50;8.70;99.90
3100;DHT22;1560;52.746;13.474;2023-05-20T04:06:57;8.70;99.90
3100;DHT22;1560;52.746;13.474;2023-05-20T04:09:27;8.60;99.90
3100;DHT22;1560;52.746;13.474;2023-05-20T04:11:57;8.60;99.90
3100;DHT22;1560;52.746;13.474;2023-05-20T04:17:05;8.70;99.90
3100;DHT22;1560;52.746;13.474;2023-05-20T04:22:14;8.70;99.90
3100;DHT22;1560;52.746;13.474;2023-05-20T04:24:44;8.80;99.90
3100;DHT22;1560;52.746;13.474;2023-05-20T04:29:52;8.90;99.90
3100;DHT22;1560;52.746;13.474;2023-05-20T04:32:22;8.90;99.90
3100;DHT22;1560;52.746;13.474;2023-05-20T04:34:53;9.00;99.90
3100;DHT22;1560;52.746;13.474;2023-05-20T04:37:23;9.00;99.90
3100;DHT22;1560;52.746;13.474;2023-05-20T04:42:32;9.10;99.90
3100;DHT22;1560;52.746;13.474;2023-05-20T04:47:40;9.10;99.90
3100;DHT22;1560;52.746;13.474;2023-05-20T04:50:11;9.00;99.90
3100;DHT22;1560;52.746;13.474;2023-05-20T04:55:21;9.10;99.90
3100;DHT22;1560;52.746;13.474;2023-05-20T04:57:51;9.10;99.90
3100;DHT22;1560;52.746;13.474;2023-05-20T05:00:24;9.20;99.90
3100;DHT22;1560;52.746;13.474;2023-05-20T05:05:31;9.30;99.90
3100;DHT22;1560;52.746;13.474;2023-05-20T05:08:02;9.30;99.90
3100;DHT22;1560;52.746;13.474;2023-05-20T05:10:32;9.30;99.90
3100;DHT22;1560;52.746;13.474;2023-05-20T05:13:02;9.30;99.90
3100;DHT22;1560;52.746;13.474;2023-05-20T05:15:31;9.40;99.90
3100;DHT22;1560;52.746;13.474;2023-05-20T05:18:00;9.40;99.90
3100;DHT22;1560;52.746;13.474;2023-05-20T05:20:30;9.40;99.90
3100;DHT22;1560;52.746;13.474;2023-05-20T05:25:37;9.50;99.90
3100;DHT22;1560;52.746;13.474;2023-05-20T05:30:45;9.50;99.90
3100;DHT22;1560;52.746;13.474;2023-05-20T05:33:15;9.60;99.90
3100;DHT22;1560;52.746;13.474;2023-05-20T05:35:44;9.60;99.90
3100;DHT22;1560;52.746;13.474;2023-05-20T05:38:15;9.60;99.90
3100;DHT22;1560;52.746;13.474;2023-05-20T05:43:26;9.70;99.90
3100;DHT22;1560;52.746;13.474;2023-05-20T05:46:03;9.70;99.90
3100;DHT22;1560;52.746;13.474;2023-05-20T05:48:35;9.70;99.90
3100;DHT22;1560;52.746;13.474;2023-05-20T05:51:06;9.70;99.90
3100;DHT22;1560;52.746;13.474;2023-05-20T05:53:37;9.70;99.90
3100;DHT22;1560;52.746;13.474;2023-05-20T05:58:53;9.70;99.90
3100;DHT22;1560;52.746;13.474;2023-05-20T06:01:30;9.80;99.90
3100;DHT22;1560;52.746;13.474;2023-05-20T06:04:02;9.90;99.90
3100;DHT22;1560;52.746;13.474;2023-05-20T06:06:32;9.90;99.90
3100;DHT22;1560;52.746;13.474;2023-05-20T06:09:03;9.90;99.90
3100;DHT22;1560;52.746;13.474;2023-05-20T06:11:36;10.00;99.90
3100;DHT22;1560;52.746;13.474;2023-05-20T06:14:06;10.00;99.90
3100;DHT22;1560;52.746;13.474;2023-05-20T06:16:45;10.10;99.90
3100;DHT22;1560;52.746;13.474;2023-05-20T06:21:52;10.20;99.90
3100;DHT22;1560;52.746;13.474;2023-05-20T06:24:22;10.20;99.90
3100;DHT22;1560;52.746;13.474;2023-05-20T06:26:57;10.30;99.90
3100;DHT22;1560;52.746;13.474;2023-05-20T06:29:27;10.30;99.90
3100;DHT22;1560;52.746;13.474;2023-05-20T06:31:58;10.40;99.90
3100;DHT22;1560;52.746;13.474;2023-05-20T06:34:28;10.40;99.90
3100;DHT22;1560;52.746;13.474;2023-05-20T06:36:57;10.40;99.90
3100;DHT22;1560;52.746;13.474;2023-05-20T06:39:28;10.40;99.90
3100;DHT22;1560;52.746;13.474;2023-05-20T06:41:57;10.40;99.90
3100;DHT22;1560;52.746;13.474;2023-05-20T06:47:15;10.60;99.90
3100;DHT22;1560;52.746;13.474;2023-05-20T06:49:47;10.50;99.90
3100;DHT22;1560;52.746;13.474;2023-05-20T06:52:19;10.60;99.90
3100;DHT22;1560;52.746;13.474;2023-05-20T06:54:49;10.60;99.90
3100;DHT22;1560;52.746;13.474;2023-05-20T06:57:18;10.70;99.90
3100;DHT22;1560;52.746;13.474;2023-05-20T06:59:51;10.60;99.90
3100;DHT22;1560;52.746;13.474;2023-05-20T07:05:03;10.60;99.90
3100;DHT22;1560;52.746;13.474;2023-05-20T07:07:33;10.70;99.90
3100;DHT22;1560;52.746;13.474;2023-05-20T07:12:46;10.80;99.90
3100;DHT22;1560;52.746;13.474;2023-05-20T07:15:18;10.90;99.90
3100;DHT22;1560;52.746;13.474;2023-05-20T07:20:31;11.00;99.90
3100;DHT22;1560;52.746;13.474;2023-05-20T07:23:00;11.10;99.90
3100;DHT22;1560;52.746;13.474;2023-05-20T07:25:37;11.20;99.90
3100;DHT22;1560;52.746;13.474;2023-05-20T07:30:43;11.40;99.90
3100;DHT22;1560;52.746;13.474;2023-05-20T07:33:14;11.50;99.90
3100;DHT22;1560;52.746;13.474;2023-05-20T07:35:46;11.60;99.90
3100;DHT22;1560;52.746;13.474;2023-05-20T07:40:56;11.70;99.90
3100;DHT22;1560;52.746;13.474;2023-05-20T07:43:28;11.70;99.90
3100;DHT22;1560;52.746;13.474;2023-05-20T07:46:01;11.60;99.90
3100;DHT22;1560;52.746;13.474;2023-05-20T07:53:44;11.80;99.90
3100;DHT22;1560;52.746;13.474;2023-05-20T07:56:14;11.80;99.90
3100;DHT22;1560;52.746;13.474;2023-05-20T07:58:50;11.90;99.90
3100;DHT22;1560;52.746;13.474;2023-05-20T08:01:15;11.90;99.90
3100;DHT22;1560;52.746;13.474;2023-05-20T08:06:39;12.00;99.90
3100;DHT22;1560;52.746;13.474;2023-05-20T08:09:12;12.00;99.90
3100;DHT22;1560;52.746;13.474;2023-05-20T08:11:43;12.10;99.90
3100;DHT22;1560;52.746;13.474;2023-05-20T08:20:02;12.30;99.90
3100;DHT22;1560;52.746;13.474;2023-05-20T08:22:32;12.30;99.90
3100;DHT22;1560;52.746;13.474;2023-05-20T08:25:03;12.40;99.90
3100;DHT22;1560;52.746;13.474;2023-05-20T08:27:32;12.50;99.90
3100;DHT22;1560;52.746;13.474;2023-05-20T08:32:39;12.60;99.90
3100;DHT22;1560;52.746;13.474;2023-05-20T08:35:12;12.70;99.90
3100;DHT22;1560;52.746;13.474;2023-05-20T08:40:23;12.90;99.90
3100;DHT22;1560;52.746;13.474;2023-05-20T08:45:32;13.20;99.90
3100;DHT22;1560;52.746;13.474;2023-05-20T11:11:22;15.10;5.50
3100;DHT22;1560;52.746;13.474;2023-05-20T12:55:53;17.10;10.90
3100;DHT22;1560;52.746;13.474;2023-05-20T13:05:23;17.10;1.00
3100;DHT22;1560;52.746;13.474;2023-05-20T13:07:50;17.20;1.00
3100;DHT22;1560;52.746;13.474;2023-05-20T13:10:21;17.40;1.00
3100;DHT22;1560;52.746;13.474;2023-05-20T13:12:51;17.60;1.00
3100;DHT22;1560;52.746;13.474;2023-05-20T13:18:08;17.10;1.00
3100;DHT22;1560;52.746;13.474;2023-05-20T13:20:43;17.00;1.00
3100;DHT22;1560;52.746;13.474;2023-05-20T13:23:15;17.00;1.00
3100;DHT22;1560;52.746;13.474;2023-05-20T13:28:22;17.30;1.00
3100;DHT22;1560;52.746;13.474;2023-05-20T13:30:52;17.40;1.00
3100;DHT22;1560;52.746;13.474;2023-05-20T13:33:23;17.50;1.00
3100;DHT22;1560;52.746;13.474;2023-05-20T13:38:33;17.50;1.00
3100;DHT22;1560;52.746;13.474;2023-05-20T13:41:02;17.50;1.00
3100;DHT22;1560;52.746;13.474;2023-05-20T13:46:10;17.50;1.00
3100;DHT22;1560;52.746;13.474;2023-05-20T13:48:43;17.50;1.00
3100;DHT22;1560;52.746;13.474;2023-05-20T13:51:12;17.70;1.00
3100;DHT22;1560;52.746;13.474;2023-05-20T13:56:27;17.60;1.00
3100;DHT22;1560;52.746;13.474;2023-05-20T13:59:08;17.70;1.00
3100;DHT22;1560;52.746;13.474;2023-05-20T14:04:12;17.70;1.00
3100;DHT22;1560;52.746;13.474;2023-05-20T14:06:41;17.90;1.00
3100;DHT22;1560;52.746;13.474;2023-05-20T14:09:15;17.90;1.00
3100;DHT22;1560;52.746;13.474;2023-05-20T14:14:21;17.70;1.00
3100;DHT22;1560;52.746;13.474;2023-05-20T14:16:51;17.80;1.00
3100;DHT22;1560;52.746;13.474;2023-05-20T14:19:20;17.90;1.00
3100;DHT22;1560;52.746;13.474;2023-05-20T14:21:52;17.90;1.00
3100;DHT22;1560;52.746;13.474;2023-05-20T14:24:22;17.90;1.00
3100;DHT22;1560;52.746;13.474;2023-05-20T14:26:52;17.90;1.00
3100;DHT22;1560;52.746;13.474;2023-05-20T14:32:07;18.10;1.00
3100;DHT22;1560;52.746;13.474;2023-05-20T14:34:38;17.90;1.00
3100;DHT22;1560;52.746;13.474;2023-05-20T14:37:13;17.90;1.00
3100;DHT22;1560;52.746;13.474;2023-05-20T14:42:22;17.90;1.00
3100;DHT22;1560;52.746;13.474;2023-05-20T14:44:50;17.90;1.00
3100;DHT22;1560;52.746;13.474;2023-05-20T14:47:20;17.80;1.00
3100;DHT22;1560;52.746;13.474;2023-05-20T14:49:51;17.80;1.00
3100;DHT22;1560;52.746;13.474;2023-05-20T14:52:20;17.80;1.00
3100;DHT22;1560;52.746;13.474;2023-05-20T14:54:52;17.90;1.00
3100;DHT22;1560;52.746;13.474;2023-05-20T15:00:03;17.90;1.00
3100;DHT22;1560;52.746;13.474;2023-05-20T15:02:33;18.00;1.00
3100;DHT22;1560;52.746;13.474;2023-05-20T15:05:03;18.00;1.00
3100;DHT22;1560;52.746;13.474;2023-05-20T15:10:18;18.00;1.00
3100;DHT22;1560;52.746;13.474;2023-05-20T15:12:50;17.90;1.00
3100;DHT22;1560;52.746;13.474;2023-05-20T15:17:59;17.80;1.00
3100;DHT22;1560;52.746;13.474;2023-05-20T15:20:34;17.80;1.00
3100;DHT22;1560;52.746;13.474;2023-05-20T15:23:04;17.80;1.00
3100;DHT22;1560;52.746;13.474;2023-05-20T15:25:36;17.80;1.00
3100;DHT22;1560;52.746;13.474;2023-05-20T15:28:08;17.80;1.00
3100;DHT22;1560;52.746;13.474;2023-05-20T15:33:20;18.00;1.00
3100;DHT22;1560;52.746;13.474;2023-05-20T15:35:49;18.10;1.00
3100;DHT22;1560;52.746;13.474;2023-05-20T15:38:21;18.10;1.00
3100;DHT22;1560;52.746;13.474;2023-05-20T15:40:50;18.10;1.00
3100;DHT22;1560;52.746;13.474;2023-05-20T15:45:58;18.10;1.00
3100;DHT22;1560;52.746;13.474;2023-05-20T15:51:09;18.20;1.00
3100;DHT22;1560;52.746;13.474;2023-05-20T15:53:38;18.10;1.00
3100;DHT22;1560;52.746;13.474;2023-05-20T15:56:09;18.10;1.00
3100;DHT22;1560;52.746;13.474;2023-05-20T16:01:17;18.20;1.00
3100;DHT22;1560;52.746;13.474;2023-05-20T16:03:48;18.20;1.00
3100;DHT22;1560;52.746;13.474;2023-05-20T16:06:24;18.20;1.00
3100;DHT22;1560;52.746;13.474;2023-05-20T16:08:54;18.30;1.00
3100;DHT22;1560;52.746;13.474;2023-05-20T16:11:23;18.20;1.00
3100;DHT22;1560;52.746;13.474;2023-05-20T16:13:54;18.30;1.00
3100;DHT22;1560;52.746;13.474;2023-05-20T16:16:24;18.30;1.00
3100;DHT22;1560;52.746;13.474;2023-05-20T16:21:34;18.30;1.00
3100;DHT22;1560;52.746;13.474;2023-05-20T16:24:15;18.30;1.00
3100;DHT22;1560;52.746;13.474;2023-05-20T16:29:26;18.40;1.00
3100;DHT22;1560;52.746;13.474;2023-05-20T16:34:59;18.40;1.00
3100;DHT22;1560;52.746;13.474;2023-05-20T16:37:28;18.40;1.00
3100;DHT22;1560;52.746;13.474;2023-05-20T16:42:36;18.40;1.00
3100;DHT22;1560;52.746;13.474;2023-05-20T16:45:08;18.40;1.00
3100;DHT22;1560;52.746;13.474;2023-05-20T16:47:37;18.40;1.00
3100;DHT22;1560;52.746;13.474;2023-05-20T16:50:14;18.50;1.00
3100;DHT22;1560;52.746;13.474;2023-05-20T16:52:47;18.50;1.00
3100;DHT22;1560;52.746;13.474;2023-05-20T16:55:21;18.50;1.00
3100;DHT22;1560;52.746;13.474;2023-05-20T17:00:32;18.50;1.00
3100;DHT22;1560;52.746;13.474;2023-05-20T17:03:07;18.50;1.00
3100;DHT22;1560;52.746;13.474;2023-05-20T17:05:47;18.50;1.00
3100;DHT22;1560;52.746;13.474;2023-05-20T17:11:39;18.50;1.00
3100;DHT22;1560;52.746;13.474;2023-05-20T17:14:15;18.50;1.00
3100;DHT22;1560;52.746;13.474;2023-05-20T17:16:45;18.50;1.00
3100;DHT22;1560;52.746;13.474;2023-05-20T17:19:19;18.50;1.00
3100;DHT22;1560;52.746;13.474;2023-05-20T17:22:06;18.50;1.00
3100;DHT22;1560;52.746;13.474;2023-05-20T17:24:47;18.50;1.00
3100;DHT22;1560;52.746;13.474;2023-05-20T17:27:17;18.50;1.00
3100;DHT22;1560;52.746;13.474;2023-05-20T17:32:31;18.40;1.00
3100;DHT22;1560;52.746;13.474;2023-05-20T17:35:20;18.30;1.00
3100;DHT22;1560;52.746;13.474;2023-05-20T17:51:46;18.20;1.00
3100;DHT22;1560;52.746;13.474;2023-05-20T17:54:41;18.00;9.60
3100;DHT22;1560;52.746;13.474;2023-05-20T18:11:00;17.80;56.40
3100;DHT22;1560;52.746;13.474;2023-05-20T18:27:22;17.60;98.00
3100;DHT22;1560;52.746;13.474;2023-05-20T19:05:59;17.30;99.90
3100;DHT22;1560;52.746;13.474;2023-05-20T19:08:45;16.70;99.90
3100;DHT22;1560;52.746;13.474;2023-05-20T19:11:34;16.60;99.90
3100;DHT22;1560;52.746;13.474;2023-05-20T19:49:56;16.00;99.90
3100;DHT22;1560;52.746;13.474;2023-05-20T19:52:35;16.00;99.90
3100;DHT22;1560;52.746;13.474;2023-05-20T19:55:25;16.00;99.90
3100;DHT22;1560;52.746;13.474;2023-05-20T19:58:13;15.90;99.90
3100;DHT22;1560;52.746;13.474;2023-05-20T20:21:28;15.60;99.90
3100;DHT22;1560;52.746;13.474;2023-05-20T20:24:21;15.70;99.90
3100;DHT22;1560;52.746;13.474;2023-05-20T20:30:02;15.70;99.90
3100;DHT22;1560;52.746;13.474;2023-05-20T20:32:37;15.60;99.90
3100;DHT22;1560;52.746;13.474;2023-05-20T20:35:40;15.60;99.90
3100;DHT22;1560;52.746;13.474;2023-05-20T20:38:22;15.60;99.90
3100;DHT22;1560;52.746;13.474;2023-05-20T20:41:05;15.60;99.90
3100;DHT22;1560;52.746;13.474;2023-05-20T20:43:48;15.50;99.90
3100;DHT22;1560;52.746;13.474;2023-05-20T20:46:37;15.50;99.90
3100;DHT22;1560;52.746;13.474;2023-05-20T20:49:21;15.30;99.90
3100;DHT22;1560;52.746;13.474;2023-05-20T20:51:54;15.30;99.90
3100;DHT22;1560;52.746;13.474;2023-05-20T20:54:24;15.20;99.90
3100;DHT22;1560;52.746;13.474;2023-05-20T20:57:08;15.10;99.90
3100;DHT22;1560;52.746;13.474;2023-05-20T20:59:54;15.10;99.90
3100;DHT22;1560;52.746;13.474;2023-05-20T21:02:56;15.00;99.90
3100;DHT22;1560;52.746;13.474;2023-05-20T21:05:33;15.00;99.90
3100;DHT22;1560;52.746;13.474;2023-05-20T21:08:06;15.00;99.90
3100;DHT22;1560;52.746;13.474;2023-05-20T21:10:47;15.00;99.90
3100;DHT22;1560;52.746;13.474;2023-05-20T21:17:06;15.00;99.90
3100;DHT22;1560;52.746;13.474;2023-05-20T21:19:37;15.10;99.90
3100;DHT22;1560;52.746;13.474;2023-05-20T21:22:22;15.10;99.90
3100;DHT22;1560;52.746;13.474;2023-05-20T21:24:53;15.10;99.90
3100;DHT22;1560;52.746;13.474;2023-05-20T21:27:24;15.10;99.90
3100;DHT22;1560;52.746;13.474;2023-05-20T21:29:55;15.10;99.90
3100;DHT22;1560;52.746;13.474;2023-05-20T21:32:25;15.10;99.90
3100;DHT22;1560;52.746;13.474;2023-05-20T21:34:55;15.10;99.90
3100;DHT22;1560;52.746;13.474;2023-05-20T21:37:25;15.10;99.90
3100;DHT22;1560;52.746;13.474;2023-05-20T21:39:58;15.10;99.90
3100;DHT22;1560;52.746;13.474;2023-05-20T21:42:29;15.10;99.90
3100;DHT22;1560;52.746;13.474;2023-05-20T21:44:59;15.00;99.90
3100;DHT22;1560;52.746;13.474;2023-05-20T21:47:36;15.10;99.90
3100;DHT22;1560;52.746;13.474;2023-05-20T21:50:14;15.00;99.90
3100;DHT22;1560;52.746;13.474;2023-05-20T21:52:51;14.90;99.90
3100;DHT22;1560;52.746;13.474;2023-05-20T21:55:38;14.90;99.90
3100;DHT22;1560;52.746;13.474;2023-05-20T21:58:11;14.90;99.90
3100;DHT22;1560;52.746;13.474;2023-05-20T22:00:47;14.90;99.90
3100;DHT22;1560;52.746;13.474;2023-05-20T22:03:16;14.90;99.90
3100;DHT22;1560;52.746;13.474;2023-05-20T22:05:48;14.80;99.90
3100;DHT22;1560;52.746;13.474;2023-05-20T22:08:21;14.90;99.90
3100;DHT22;1560;52.746;13.474;2023-05-20T22:10:52;14.90;99.90
3100;DHT22;1560;52.746;13.474;2023-05-20T22:13:25;14.80;99.90
3100;DHT22;1560;52.746;13.474;2023-05-20T22:15:55;14.80;99.90
3100;DHT22;1560;52.746;13.474;2023-05-20T22:18:28;14.70;99.90
3100;DHT22;1560;52.746;13.474;2023-05-20T22:20:57;14.70;99.90
3100;DHT22;1560;52.746;13.474;2023-05-20T22:23:28;14.70;99.90
3100;DHT22;1560;52.746;13.474;2023-05-20T22:26:03;14.60;99.90
3100;DHT22;1560;52.746;13.474;2023-05-20T22:28:33;14.60;99.90
3100;DHT22;1560;52.746;13.474;2023-05-20T22:31:18;14.60;99.90
3100;DHT22;1560;52.746;13.474;2023-05-20T22:33:51;14.50;99.90
3100;DHT22;1560;52.746;13.474;2023-05-20T22:39:07;14.40;99.90
3100;DHT22;1560;52.746;13.474;2023-05-20T22:41:39;14.40;99.90
3100;DHT22;1560;52.746;13.474;2023-05-20T22:44:08;14.30;99.90
3100;DHT22;1560;52.746;13.474;2023-05-20T22:49:19;14.30;99.90
3100;DHT22;1560;52.746;13.474;2023-05-20T22:51:52;14.30;99.90
3100;DHT22;1560;52.746;13.474;2023-05-20T22:54:23;14.30;99.90
3100;DHT22;1560;52.746;13.474;2023-05-20T22:56:52;14.20;99.90
3100;DHT22;1560;52.746;13.474;2023-05-20T22:59:26;14.20;99.90
3100;DHT22;1560;52.746;13.474;2023-05-20T23:01:59;14.10;99.90
3100;DHT22;1560;52.746;13.474;2023-05-20T23:04:29;14.10;99.90
3100;DHT22;1560;52.746;13.474;2023-05-20T23:06:58;14.10;99.90
3100;DHT22;1560;52.746;13.474;2023-05-20T23:09:27;14.00;99.90
3100;DHT22;1560;52.746;13.474;2023-05-20T23:11:57;14.00;99.90
3100;DHT22;1560;52.746;13.474;2023-05-20T23:14:26;14.00;99.90
3100;DHT22;1560;52.746;13.474;2023-05-20T23:19:36;14.00;99.90
3100;DHT22;1560;52.746;13.474;2023-05-20T23:24:46;14.00;99.90
3100;DHT22;1560;52.746;13.474;2023-05-20T23:27:18;14.00;99.90
3100;DHT22;1560;52.746;13.474;2023-05-20T23:29:50;14.10;99.90
3100;DHT22;1560;52.746;13.474;2023-05-20T23:32:27;14.00;99.90
3100;DHT22;1560;52.746;13.474;2023-05-20T23:34:56;14.00;99.90
3100;DHT22;1560;52.746;13.474;2023-05-20T23:37:27;14.00;99.90
3100;DHT22;1560;52.746;13.474;2023-05-20T23:39:56;13.90;99.90
3100;DHT22;1560;52.746;13.474;2023-05-20T23:42:26;13.90;99.90
3100;DHT22;1560;52.746;13.474;2023-05-20T23:45:00;13.90;99.90
3100;DHT22;1560;52.746;13.474;2023-05-20T23:47:30;13.80;99.90
3100;DHT22;1560;52.746;13.474;2023-05-20T23:50:00;13.80;99.90
3100;DHT22;1560;52.746;13.474;2023-05-20T23:52:33;13.80;99.90
3100;DHT22;1560;52.746;13.474;2023-05-20T23:55:06;13.80;99.90
3100;DHT22;1560;52.746;13.474;2023-05-20T23:57:37;13.80;99.90
